createdAt,value
2022-10-04T00:01:56.225Z,8.75
2022-10-04T00:04:25.014Z,8.20
2022-10-04T00:07:14.696Z,10.02
2022-10-04T00:09:46.222Z,8.45
2022-10-04T00:12:18.650Z,18.85
2022-10-04T00:14:45.123Z,7.38
2022-10-04T00:17:13.616Z,14.63
2022-10-04T00:19:42.313Z,10.95
2022-10-04T00:22:12.423Z,10.25
2022-10-04T00:24:58.667Z,8.25
2022-10-04T00:27:26.078Z,8.38
2022-10-04T00:30:01.447Z,12.10
2022-10-04T00:34:54.208Z,10.88
2022-10-04T00:39:57.184Z,11.52
2022-10-04T00:42:31.516Z,16.60
2022-10-04T00:45:00.796Z,12.43
2022-10-04T00:47:31.591Z,9.35
2022-10-04T00:50:20.115Z,9.73
2022-10-04T00:52:49.967Z,10.48
2022-10-04T00:55:42.534Z,12.95
2022-10-04T00:58:15.684Z,11.05
2022-10-04T01:00:43.409Z,9.82
2022-10-04T01:03:16.130Z,10.77
2022-10-04T01:05:44.963Z,9.30
2022-10-04T01:08:15.896Z,10.23
2022-10-04T01:10:45.834Z,10.13
2022-10-04T01:13:19.924Z,10.27
2022-10-04T01:15:59.292Z,9.90
2022-10-04T01:18:25.596Z,14.43
2022-10-04T01:20:57.666Z,14.57
2022-10-04T01:23:37.887Z,10.90
2022-10-04T01:26:30.302Z,14.95
2022-10-04T01:28:58.903Z,9.52
2022-10-04T01:31:26.349Z,13.55
2022-10-04T01:33:53.719Z,12.43
2022-10-04T01:36:20.356Z,13.68
2022-10-04T01:38:46.974Z,13.55
2022-10-04T01:41:14.547Z,9.70
2022-10-04T01:43:43.182Z,8.73
2022-10-04T01:46:15.272Z,11.00
2022-10-04T01:48:42.546Z,18.45
2022-10-04T01:51:13.599Z,14.00
2022-10-04T01:53:51.594Z,12.55
2022-10-04T01:56:19.946Z,9.55
2022-10-04T01:58:48.383Z,14.38
2022-10-04T02:01:18.928Z,10.88
2022-10-04T02:03:52.301Z,13.32
2022-10-04T02:06:19.506Z,9.93
2022-10-04T02:08:47.926Z,12.65
2022-10-04T02:11:17.030Z,10.23
2022-10-04T02:13:45.737Z,10.70
2022-10-04T02:16:12.584Z,15.15
2022-10-04T02:18:40.231Z,12.45
2022-10-04T02:21:07.338Z,8.70
2022-10-04T02:23:35.251Z,10.95
2022-10-04T02:26:08.777Z,11.63
2022-10-04T02:28:35.817Z,13.18
2022-10-04T02:31:21.260Z,19.25
2022-10-04T02:33:49.506Z,11.70
2022-10-04T02:36:16.296Z,12.23
2022-10-04T02:39:01.636Z,12.32
2022-10-04T02:41:33.800Z,11.93
2022-10-04T02:44:04.783Z,20.40
2022-10-04T02:46:34.145Z,9.90
2022-10-04T02:49:12.222Z,11.50
2022-10-04T02:51:40.964Z,14.35
2022-10-04T02:54:14.509Z,10.82
2022-10-04T02:56:41.898Z,9.95
2022-10-04T02:59:12.648Z,12.82
2022-10-04T03:01:47.475Z,10.13
2022-10-04T03:04:15.045Z,9.23
2022-10-04T03:06:41.696Z,9.43
2022-10-04T03:09:08.156Z,9.18
2022-10-04T03:11:35.813Z,9.68
2022-10-04T03:14:03.977Z,13.88
2022-10-04T03:16:34.421Z,11.95
2022-10-04T03:19:00.967Z,9.63
2022-10-04T03:21:27.519Z,10.38
2022-10-04T03:23:53.844Z,15.52
2022-10-04T03:26:29.663Z,11.73
2022-10-04T03:28:57.896Z,14.90
2022-10-04T03:31:27.781Z,14.15
2022-10-04T03:33:55.490Z,10.20
2022-10-04T03:36:22.958Z,16.33
2022-10-04T03:38:52.318Z,12.70
2022-10-04T03:41:18.751Z,15.55
2022-10-04T03:43:45.853Z,12.68
2022-10-04T03:46:12.783Z,17.80
2022-10-04T03:48:50.191Z,19.83
2022-10-04T03:51:18.007Z,8.23
2022-10-04T03:53:45.323Z,12.50
2022-10-04T03:56:23.119Z,9.77
2022-10-04T03:58:50.191Z,12.52
2022-10-04T04:01:16.515Z,10.95
2022-10-04T04:03:45.847Z,12.35
2022-10-04T04:06:15.804Z,14.05
2022-10-04T04:08:44.506Z,13.43
2022-10-04T04:11:18.819Z,11.95
2022-10-04T04:13:45.113Z,13.20
2022-10-04T04:16:11.714Z,12.48
2022-10-04T04:18:40.470Z,9.90
2022-10-04T04:21:08.021Z,12.73
2022-10-04T04:23:36.529Z,14.20
2022-10-04T04:26:23.451Z,12.90
2022-10-04T04:29:13.173Z,14.48
2022-10-04T04:31:45.878Z,18.17
2022-10-04T04:34:24.751Z,13.77
2022-10-04T04:36:52.805Z,11.63
2022-10-04T04:39:40.821Z,17.40
2022-10-04T04:42:07.194Z,11.88
2022-10-04T04:44:33.902Z,17.23
2022-10-04T04:47:00.520Z,19.67
2022-10-04T04:49:29.171Z,18.58
2022-10-04T04:51:57.891Z,9.35
2022-10-04T04:54:25.819Z,11.60
2022-10-04T04:56:52.817Z,14.75
2022-10-04T04:59:19.823Z,11.80
2022-10-04T05:01:47.243Z,9.15
2022-10-04T05:04:13.551Z,14.07
2022-10-04T05:06:41.271Z,20.90
2022-10-04T05:09:22.195Z,12.05
2022-10-04T05:11:50.093Z,11.13
2022-10-04T05:14:17.430Z,10.50
2022-10-04T05:16:47.175Z,11.70
2022-10-04T05:19:13.569Z,15.43
2022-10-04T05:21:43.031Z,10.00
2022-10-04T05:24:11.485Z,14.60
2022-10-04T05:26:37.872Z,12.90
2022-10-04T05:29:10.167Z,10.32
2022-10-04T05:31:39.557Z,14.70
2022-10-04T05:34:15.423Z,21.05
2022-10-04T05:36:48.727Z,17.67
2022-10-04T05:39:24.294Z,17.08
2022-10-04T05:42:09.434Z,19.13
2022-10-04T05:44:36.650Z,14.13
2022-10-04T05:47:06.690Z,21.67
2022-10-04T05:49:44.117Z,23.85
2022-10-04T05:52:30.315Z,15.35
2022-10-04T05:55:12.036Z,19.27
2022-10-04T05:57:57.992Z,18.00
2022-10-04T06:00:33.860Z,15.20
2022-10-04T06:03:00.191Z,12.60
2022-10-04T06:05:32.232Z,20.02
2022-10-04T06:08:02.061Z,21.10
2022-10-04T06:10:50.630Z,20.45
2022-10-04T06:13:40.904Z,16.67
2022-10-04T06:16:22.256Z,15.95
2022-10-04T06:18:59.177Z,16.92
2022-10-04T06:21:27.252Z,22.08
2022-10-04T06:24:02.468Z,13.93
2022-10-04T06:26:43.641Z,13.98
2022-10-04T06:29:18.140Z,25.58
2022-10-04T06:31:57.132Z,16.75
2022-10-04T06:34:26.822Z,16.63
2022-10-04T06:37:03.605Z,16.30
2022-10-04T06:39:47.360Z,17.10
2022-10-04T06:42:34.527Z,16.88
2022-10-04T06:45:12.641Z,14.88
2022-10-04T06:47:48.055Z,12.48
2022-10-04T06:50:33.789Z,15.07
2022-10-04T06:55:35.133Z,19.83
2022-10-04T06:58:20.079Z,13.23
2022-10-04T07:00:55.337Z,14.40
2022-10-04T07:05:53.542Z,12.70
2022-10-04T07:08:35.319Z,17.63
2022-10-04T07:11:13.670Z,16.90
2022-10-04T07:13:53.026Z,14.93
2022-10-04T07:16:26.835Z,17.08
2022-10-04T07:18:55.898Z,12.93
2022-10-04T07:21:23.940Z,13.38
2022-10-04T07:23:56.279Z,14.02
2022-10-04T07:26:25.585Z,12.73
2022-10-04T07:29:13.148Z,16.38
2022-10-04T07:31:41.062Z,13.02
2022-10-04T07:34:15.741Z,18.65
2022-10-04T07:36:45.271Z,12.80
2022-10-04T07:39:31.776Z,11.13
2022-10-04T07:42:21.542Z,15.07
2022-10-04T07:44:56.439Z,15.45
2022-10-04T07:47:25.692Z,10.35
2022-10-04T07:49:53.935Z,11.77
2022-10-04T07:52:20.247Z,12.63
2022-10-04T07:55:02.088Z,15.07
2022-10-04T07:57:47.101Z,13.98
2022-10-04T08:00:21.982Z,15.52
2022-10-04T08:03:07.024Z,8.25
2022-10-04T08:05:45.524Z,9.93
2022-10-04T08:08:30.277Z,10.25
2022-10-04T08:11:15.229Z,13.57
2022-10-04T08:13:51.186Z,13.13
2022-10-04T08:16:31.129Z,12.48
2022-10-04T08:18:57.359Z,12.63
2022-10-04T08:21:31.776Z,13.23
2022-10-04T08:24:24.828Z,14.52
2022-10-04T08:26:54.188Z,10.30
2022-10-04T08:29:42.471Z,13.88
2022-10-04T08:32:26.024Z,12.48
2022-10-04T08:35:07.324Z,9.45
2022-10-04T08:37:53.605Z,10.98
2022-10-04T08:40:28.963Z,12.52
2022-10-04T08:43:13.847Z,16.10
2022-10-04T08:45:58.721Z,14.60
2022-10-04T08:48:38.671Z,16.13
2022-10-04T08:51:04.894Z,11.00
2022-10-04T08:54:00.355Z,12.07
2022-10-04T08:56:32.843Z,8.40
2022-10-04T08:59:00.317Z,17.20
2022-10-04T09:01:57.374Z,14.00
2022-10-04T09:04:29.644Z,14.40
2022-10-04T09:06:56.164Z,14.73
2022-10-04T09:09:35.054Z,8.68
2022-10-04T09:12:10.533Z,10.02
2022-10-04T09:14:36.760Z,9.30
2022-10-04T09:17:21.835Z,6.55
2022-10-04T09:22:19.831Z,10.10
2022-10-04T09:24:55.107Z,15.07
2022-10-04T09:27:54.557Z,7.15
2022-10-04T09:30:40.155Z,6.88
2022-10-04T09:33:25.904Z,14.60
2022-10-04T09:36:10.767Z,7.32
2022-10-04T09:38:38.832Z,6.78
2022-10-04T09:41:05.082Z,9.10
2022-10-04T09:44:00.287Z,9.18
2022-10-04T09:46:45.387Z,10.65
2022-10-04T09:49:17.629Z,8.18
2022-10-04T09:52:05.238Z,8.00
2022-10-04T09:54:42.330Z,8.95
2022-10-04T09:57:19.454Z,10.20
2022-10-04T10:02:28.225Z,9.88
2022-10-04T10:05:02.143Z,9.68
2022-10-04T10:07:39.638Z,8.32
2022-10-04T10:10:34.937Z,8.25
2022-10-04T10:13:38.963Z,9.80
2022-10-04T10:16:25.678Z,6.60
2022-10-04T10:19:07.748Z,10.85
2022-10-04T10:21:37.152Z,13.93
2022-10-04T10:24:19.803Z,10.90
2022-10-04T10:26:52.062Z,5.47
2022-10-04T10:29:27.079Z,12.43
2022-10-04T10:32:09.228Z,11.23
2022-10-04T10:34:44.626Z,8.68
2022-10-04T10:37:13.672Z,11.57
2022-10-04T10:39:42.836Z,11.85
2022-10-04T10:42:14.691Z,10.00
2022-10-04T10:44:59.835Z,8.05
2022-10-04T10:47:35.493Z,11.18
2022-10-04T10:50:07.663Z,7.95
2022-10-04T10:52:55.467Z,7.15
2022-10-04T10:55:50.726Z,8.18
2022-10-04T10:58:22.925Z,10.20
2022-10-04T11:00:59.324Z,9.13
2022-10-04T11:03:44.158Z,5.40
2022-10-04T11:06:17.257Z,6.40
2022-10-04T11:09:02.307Z,8.88
2022-10-04T11:11:34.376Z,9.65
2022-10-04T11:14:12.557Z,10.38
2022-10-04T11:16:38.782Z,7.20
2022-10-04T11:19:36.025Z,7.32
2022-10-04T11:22:20.949Z,6.45
2022-10-04T11:24:59.374Z,4.85
2022-10-04T11:27:28.746Z,4.80
2022-10-04T11:30:14.094Z,8.05
2022-10-04T11:32:40.391Z,8.07
2022-10-04T11:35:25.229Z,9.18
2022-10-04T11:38:16.009Z,8.25
2022-10-04T11:40:42.286Z,6.80
2022-10-04T11:43:11.686Z,6.60
2022-10-04T11:45:38.301Z,5.18
2022-10-04T11:48:16.522Z,6.75
2022-10-04T11:51:03.115Z,6.35
2022-10-04T11:53:32.298Z,6.95
2022-10-04T11:56:04.375Z,9.45
2022-10-04T11:58:43.851Z,8.38
2022-10-04T12:01:15.862Z,9.25
2022-10-04T12:03:48.064Z,7.70
2022-10-04T12:06:34.983Z,8.32
2022-10-04T12:09:19.801Z,9.60
2022-10-04T12:12:04.719Z,6.22
2022-10-04T12:14:31.102Z,8.52
2022-10-04T12:17:18.570Z,7.30
2022-10-04T12:19:59.311Z,7.80
2022-10-04T12:22:38.766Z,9.32
2022-10-04T12:25:08.039Z,8.63
2022-10-04T12:27:52.635Z,8.85
2022-10-04T12:30:30.811Z,10.13
2022-10-04T12:33:19.109Z,6.53
2022-10-04T12:36:14.811Z,11.55
2022-10-04T12:38:53.316Z,5.88
2022-10-04T12:41:19.626Z,9.45
2022-10-04T12:43:58.608Z,7.90
2022-10-04T12:46:37.520Z,5.85
2022-10-04T12:49:21.760Z,7.18
2022-10-04T12:52:08.144Z,8.15
2022-10-04T12:54:37.833Z,8.63
2022-10-04T12:57:08.008Z,6.75
2022-10-04T12:59:42.294Z,8.93
2022-10-04T13:02:27.147Z,10.00
2022-10-04T13:04:55.139Z,6.22
2022-10-04T13:07:29.632Z,6.20
2022-10-04T13:10:24.149Z,6.40
2022-10-04T13:13:05.060Z,5.63
2022-10-04T13:18:34.677Z,3.60
2022-10-04T13:21:01.045Z,5.07
2022-10-04T13:23:27.270Z,12.20
2022-10-04T13:26:04.549Z,4.43
2022-10-04T13:28:38.065Z,5.25
2022-10-04T13:31:24.431Z,6.30
2022-10-04T13:33:58.105Z,3.97
2022-10-04T13:36:30.015Z,8.98
2022-10-04T13:39:07.450Z,8.75
2022-10-04T13:41:45.767Z,6.95
2022-10-04T13:44:24.333Z,5.00
2022-10-04T13:46:52.163Z,4.30
2022-10-04T13:49:37.169Z,8.27
2022-10-04T13:52:40.810Z,7.43
2022-10-04T13:55:25.913Z,6.18
2022-10-04T13:58:07.631Z,5.05
2022-10-04T14:01:00.074Z,4.93
2022-10-04T14:03:32.157Z,4.95
2022-10-04T14:06:20.144Z,5.82
2022-10-04T14:08:55.106Z,6.63
2022-10-04T14:11:41.657Z,8.95
2022-10-04T14:14:14.573Z,11.57
2022-10-04T14:16:57.264Z,8.02
2022-10-04T14:19:35.935Z,10.65
2022-10-04T14:22:22.995Z,9.20
2022-10-04T14:25:18.878Z,8.50
2022-10-04T14:27:53.359Z,5.07
2022-10-04T14:30:23.083Z,5.55
2022-10-04T14:33:08.214Z,4.32
2022-10-04T14:35:39.844Z,8.05
2022-10-04T14:38:15.654Z,4.43
2022-10-04T14:40:51.396Z,8.23
2022-10-04T14:43:17.700Z,5.53
2022-10-04T14:45:55.420Z,6.78
2022-10-04T14:48:21.763Z,3.58
2022-10-04T14:50:53.060Z,6.88
2022-10-04T14:53:36.764Z,5.95
2022-10-04T14:56:03.005Z,6.55
2022-10-04T14:58:48.279Z,4.22
2022-10-04T15:01:18.440Z,4.38
2022-10-04T15:04:13.568Z,4.57
2022-10-04T15:06:49.671Z,8.02
2022-10-04T15:09:28.341Z,3.95
2022-10-04T15:12:36.387Z,4.45
2022-10-04T15:15:14.213Z,7.40
2022-10-04T15:17:43.409Z,6.10
2022-10-04T15:20:24.962Z,10.05
2022-10-04T15:22:55.261Z,4.53
2022-10-04T15:25:40.358Z,5.35
2022-10-04T15:28:25.335Z,4.32
2022-10-04T15:30:51.722Z,4.78
2022-10-04T15:33:36.169Z,7.18
2022-10-04T15:36:20.838Z,7.22
2022-10-04T15:38:57.179Z,8.33
2022-10-04T15:41:33.181Z,5.85
2022-10-04T15:44:12.718Z,5.97
2022-10-04T15:46:45.383Z,6.55
2022-10-04T15:49:21.773Z,5.97
2022-10-04T15:51:48.567Z,11.43
2022-10-04T15:54:18.378Z,4.63
2022-10-04T15:56:49.091Z,4.80
2022-10-04T15:59:19.318Z,5.30
2022-10-04T16:01:55.096Z,5.38
2022-10-04T16:04:33.638Z,4.93
2022-10-04T16:07:19.499Z,7.68
2022-10-04T16:09:51.509Z,6.43
2022-10-04T16:12:38.997Z,7.43
2022-10-04T16:15:31.592Z,11.63
2022-10-04T16:18:12.205Z,7.20
2022-10-04T16:20:55.272Z,9.95
2022-10-04T16:23:29.040Z,10.23
2022-10-04T16:25:59.471Z,5.60
2022-10-04T16:28:43.896Z,7.13
2022-10-04T16:31:16.573Z,9.77
2022-10-04T16:33:58.806Z,6.18
2022-10-04T16:36:45.631Z,6.07
2022-10-04T16:39:31.307Z,9.38
2022-10-04T16:42:05.916Z,7.03
2022-10-04T16:44:53.513Z,11.88
2022-10-04T16:47:25.752Z,9.80
2022-10-04T16:49:54.928Z,6.57
2022-10-04T16:52:28.207Z,9.77
2022-10-04T16:54:54.955Z,11.13
2022-10-04T16:57:22.449Z,9.68
2022-10-04T16:59:56.077Z,8.57
2022-10-04T17:02:41.751Z,11.43
2022-10-04T17:07:40.792Z,11.30
2022-10-04T17:10:21.222Z,11.48
2022-10-04T17:13:13.801Z,12.68
2022-10-04T17:15:48.212Z,9.10
2022-10-04T17:18:29.880Z,10.77
2022-10-04T17:20:58.581Z,12.73
2022-10-04T17:23:37.759Z,7.93
2022-10-04T17:26:40.766Z,9.80
2022-10-04T17:29:15.792Z,9.02
2022-10-04T17:31:53.463Z,8.73
2022-10-04T17:34:23.298Z,6.50
2022-10-04T17:37:01.268Z,12.10
2022-10-04T17:39:27.491Z,9.52
2022-10-04T17:41:56.851Z,10.73
2022-10-04T17:44:34.077Z,10.88
2022-10-04T17:47:00.349Z,10.95
2022-10-04T17:49:52.898Z,7.20
2022-10-04T17:52:52.816Z,7.28
2022-10-04T17:55:24.299Z,6.93
2022-10-04T17:58:04.035Z,10.75
2022-10-04T18:00:47.546Z,6.75
2022-10-04T18:03:19.351Z,8.27
2022-10-04T18:05:54.508Z,8.98
2022-10-04T18:08:26.868Z,7.80
2022-10-04T18:10:58.422Z,7.07
2022-10-04T18:13:33.474Z,8.05
2022-10-04T18:16:08.155Z,7.10
2022-10-04T18:18:38.780Z,9.20
2022-10-04T18:21:23.774Z,7.32
2022-10-04T18:23:54.498Z,9.27
2022-10-04T18:26:21.738Z,7.82
2022-10-04T18:28:49.135Z,6.15
2022-10-04T18:31:29.913Z,8.45
2022-10-04T18:34:16.471Z,5.70
2022-10-04T18:36:46.093Z,12.93
2022-10-04T18:39:12.840Z,7.68
2022-10-04T18:41:51.615Z,7.95
2022-10-04T18:44:22.026Z,7.20
2022-10-04T18:46:51.080Z,8.55
2022-10-04T18:49:24.516Z,7.03
2022-10-04T18:51:50.770Z,8.75
2022-10-04T18:54:35.911Z,7.85
2022-10-04T18:57:08.267Z,8.32
2022-10-04T18:59:56.198Z,5.75
2022-10-04T19:02:35.148Z,13.38
2022-10-04T19:05:25.643Z,9.45
2022-10-04T19:07:51.931Z,9.05
2022-10-04T19:10:37.057Z,7.78
2022-10-04T19:13:09.988Z,8.95
2022-10-04T19:15:39.032Z,8.02
2022-10-04T19:18:08.291Z,7.88
2022-10-04T19:20:34.559Z,9.75
2022-10-04T19:23:00.787Z,6.60
2022-10-04T19:26:02.018Z,8.90
2022-10-04T19:28:32.895Z,7.70
2022-10-04T19:31:02.952Z,12.07
2022-10-04T19:33:29.218Z,7.97
2022-10-04T19:36:04.585Z,9.95
2022-10-04T19:41:15.584Z,7.03
2022-10-04T19:43:53.194Z,10.30
2022-10-04T19:46:25.403Z,8.00
2022-10-04T19:48:52.500Z,6.03
2022-10-04T19:51:39.889Z,8.10
2022-10-04T19:54:15.665Z,10.57
2022-10-04T19:56:45.432Z,9.43
2022-10-04T19:59:23.285Z,10.52
2022-10-04T20:01:52.639Z,8.65
2022-10-04T20:04:41.980Z,9.00
2022-10-04T20:07:18.891Z,10.50
2022-10-04T20:09:51.496Z,12.68
2022-10-04T20:12:32.577Z,9.25
2022-10-04T20:15:28.391Z,9.20
2022-10-04T20:17:54.966Z,7.70
2022-10-04T20:20:40.291Z,7.88
2022-10-04T20:23:07.717Z,10.23
2022-10-04T20:25:42.858Z,14.90
2022-10-04T20:28:09.766Z,8.75
2022-10-04T20:30:50.846Z,12.70
2022-10-04T20:33:36.800Z,8.43
2022-10-04T20:36:06.266Z,9.98
2022-10-04T20:38:38.429Z,9.50
2022-10-04T20:41:04.693Z,7.38
2022-10-04T20:43:32.067Z,6.85
2022-10-04T20:45:58.661Z,8.40
2022-10-04T20:48:26.074Z,9.82
2022-10-04T20:50:52.768Z,6.90
2022-10-04T20:53:20.571Z,8.20
2022-10-04T20:55:47.286Z,8.18
2022-10-04T20:58:21.835Z,11.27
2022-10-04T21:00:52.914Z,7.57
2022-10-04T21:03:19.334Z,8.60
2022-10-04T21:05:58.189Z,15.43
2022-10-04T21:08:25.436Z,7.60
2022-10-04T21:11:01.434Z,6.95
2022-10-04T21:13:43.131Z,8.30
2022-10-04T21:16:09.942Z,10.77
2022-10-04T21:18:36.371Z,7.50
2022-10-04T21:21:02.742Z,10.50
2022-10-04T21:23:31.339Z,9.73
2022-10-04T21:26:16.554Z,14.43
2022-10-04T21:28:42.891Z,13.55
2022-10-04T21:31:09.183Z,9.18
2022-10-04T21:33:35.811Z,7.28
2022-10-04T21:36:02.466Z,9.77
2022-10-04T21:38:28.933Z,9.75
2022-10-04T21:40:55.952Z,10.38
2022-10-04T21:43:22.961Z,8.55
2022-10-04T21:45:49.278Z,8.60
2022-10-04T21:48:15.678Z,9.27
2022-10-04T21:50:41.980Z,12.93
2022-10-04T21:53:08.303Z,10.77
2022-10-04T21:55:34.556Z,7.20
2022-10-04T21:58:00.923Z,12.00
2022-10-04T22:00:27.191Z,9.07
2022-10-04T22:02:53.502Z,11.10
2022-10-04T22:05:19.790Z,9.05
2022-10-04T22:07:46.192Z,11.02
2022-10-04T22:10:12.573Z,8.60
2022-10-04T22:12:38.913Z,10.15
2022-10-04T22:15:05.787Z,13.45
2022-10-04T22:17:32.043Z,9.43
2022-10-04T22:19:58.318Z,5.95
2022-10-04T22:22:24.563Z,8.27
2022-10-04T22:24:50.839Z,9.93
2022-10-04T22:27:19.163Z,8.77
2022-10-04T22:29:45.710Z,14.32
2022-10-04T22:32:21.515Z,10.40
2022-10-04T22:34:47.824Z,11.90
2022-10-04T22:37:14.127Z,11.55
2022-10-04T22:39:40.422Z,8.50
2022-10-04T22:42:07.523Z,8.73
2022-10-04T22:44:37.690Z,8.88
2022-10-04T22:47:06.651Z,11.40
2022-10-04T22:49:34.864Z,10.95
2022-10-04T22:52:03.971Z,8.07
2022-10-04T22:54:31.503Z,8.80
2022-10-04T22:56:58.123Z,8.40
2022-10-04T22:59:33.215Z,14.07
2022-10-04T23:01:59.911Z,9.35
2022-10-04T23:04:26.257Z,8.25
2022-10-04T23:06:53.095Z,8.60
2022-10-04T23:09:19.641Z,12.00
2022-10-04T23:11:46.224Z,13.02
2022-10-04T23:14:12.594Z,9.57
2022-10-04T23:16:39.131Z,6.25
2022-10-04T23:19:20.970Z,7.38
2022-10-04T23:21:48.427Z,12.85
2022-10-04T23:24:16.544Z,9.90
2022-10-04T23:26:44.692Z,6.10
2022-10-04T23:29:22.971Z,9.38
2022-10-04T23:31:50.086Z,7.90
2022-10-04T23:34:18.172Z,9.98
2022-10-04T23:36:45.462Z,7.72
2022-10-04T23:39:13.781Z,10.23
2022-10-04T23:41:40.149Z,8.68
2022-10-04T23:44:11.036Z,6.38
2022-10-04T23:46:37.314Z,5.75
2022-10-04T23:49:03.718Z,11.75
2022-10-04T23:51:30.083Z,10.20
2022-10-04T23:53:56.347Z,9.45
2022-10-04T23:56:24.180Z,9.57
2022-10-04T23:58:52.551Z,8.02
